Погода Баркана неделю

Маскат, Оман

21 - 27 июля
  • 21июля
    Сегодня
    +34°
    +42°
    Ясно и безоблачно
    ВремяПогодаТемператураВлажностьДавлениеВетер, м/сВероятность осадков
    01:00Практически безоблачно+34°C85 %745 мм0.9 м/с0 %
    04:00Небольшая облачность+34°C91 %745 мм0.7 м/с0 %
    07:00Практически безоблачно+34°C88 %747 мм0.5 м/с0 %
    10:00Ясно и безоблачно+39°C77 %747 мм3.1 м/с0 %
    13:00Ясно и безоблачно+41°C73 %746 мм5.8 м/с0 %
    16:00Облачно с прояснениями+41°C73 %745 мм6.7 м/с0 %
    19:00Облачно с прояснениями+38°C77 %745 мм4.7 м/с0 %
    22:00Облачно с прояснениями+37°C80 %746 мм1.5 м/с0 %
  • 22июля
    Понедельник
    +34°
    +43°
    Ясно и безоблачно
    ВремяПогодаТемператураВлажностьДавлениеВетер, м/сВероятность осадков
    01:00Облачно с прояснениями+35°C87 %745 мм0.9 м/с0 %
    04:00Практически безоблачно+35°C87 %745 мм1.2 м/с0 %
    07:00Ясно и безоблачно+36°C82 %747 мм3.4 м/с0 %
    10:00Ясно и безоблачно+40°C73 %747 мм3.2 м/с0 %
    13:00Ясно и безоблачно+41°C71 %746 мм6.5 м/с0 %
    16:00Ясно и безоблачно+41°C70 %745 мм6.7 м/с0 %
    19:00Ясно и безоблачно+39°C74 %745 мм4.9 м/с0 %
    22:00Ясно и безоблачно+37°C78 %746 мм2.3 м/с0 %
  • 23июля
    Вторник
    +35°
    +42°
    Ясно и безоблачно
    ВремяПогодаТемператураВлажностьДавлениеВетер, м/сВероятность осадков
    01:00Практически безоблачно+36°C79 %745 мм2.4 м/с0 %
    04:00Небольшая облачность+35°C87 %746 мм2.9 м/с0 %
    07:00Практически безоблачно+35°C83 %747 мм2.2 м/с0 %
    10:00Ясно и безоблачно+41°C71 %747 мм3.5 м/с0 %
    13:00Ясно и безоблачно+41°C77 %746 мм4.5 м/с0 %
    16:00Ясно и безоблачно+42°C71 %744 мм4.8 м/с0 %
    19:00Ясно и безоблачно+38°C78 %744 мм3.3 м/с0 %
    22:00Ясно и безоблачно+37°C80 %745 мм0.9 м/с0 %
  • 24июля
    Среда
    +35°
    +45°
    Ясно и безоблачно
    ВремяПогодаТемператураВлажностьДавлениеВетер, м/сВероятность осадков
    01:00Ясно и безоблачно+37°C70 %744 мм3.6 м/с0 %
    04:00Ясно и безоблачно+36°C81 %744 мм2.6 м/с0 %
    07:00Ясно и безоблачно+36°C80 %745 мм2.3 м/с0 %
    10:00Практически безоблачно+43°C65 %745 мм2.9 м/с0 %
    13:00Ясно и безоблачно+45°C59 %743 мм4.2 м/с0 %
    16:00Практически безоблачно+44°C64 %742 мм4.2 м/с0 %
    19:00Ясно и безоблачно+40°C69 %743 мм3.0 м/с0 %
    22:00Ясно и безоблачно+39°C65 %744 мм0.6 м/с0 %
  • 25июля
    Четверг
    +36°
    +46°
    Ясно и безоблачно
    ВремяПогодаТемператураВлажностьДавлениеВетер, м/сВероятность осадков
    01:00Ясно и безоблачно+39°C45 %742 мм2.3 м/с0 %
    04:00Небольшая облачность+37°C50 %742 мм2.4 м/с0 %
    07:00Небольшая облачность+38°C53 %744 мм2.6 м/с0 %
    10:00Ясно и безоблачно+44°C47 %744 мм1.3 м/с0 %
    13:00Ясно и безоблачно+45°C48 %743 мм3.6 м/с0 %
    16:00Ясно и безоблачно+44°C53 %742 мм3.2 м/с0 %
    19:00Практически безоблачно+42°C52 %742 мм1.9 м/с0 %
    22:00Ясно и безоблачно+40°C46 %744 мм1.2 м/с0 %
Мы используем cookies
Соглашаюсь